58OK weather

Jane Phillips Heliport
Bartlesville, Oklahoma, United States

Public forecast

Using degrees Fahrenheit for public forecast. Weather courtesy of forecast.io.

Closest aviation weather report (METAR) to Jane Phillips Heliport

Closest report is Bartlesville Municipal Airport, 4.9 nm (9.0 km) WNW. Retrieved 2019/10/15 07:53 UTC (2 hours ago):

KBVO 150753Z AUTO 18004KT 10SM OVC015 19/17 A2990 RMK AO2 SLP116 T01890172

Closest aviation forecast (TAF) to Jane Phillips Heliport

Closest forecast is Bartlesville Municipal Airport, 4.9 nm (9.0 km) WNW. Retrieved 2019/10/15 06:22 UTC (3 hours ago):

TAF KBVO 150520Z 1506/1606 17008KT P6SM BKN015 TEMPO 1510/1514 2SM -DZ BR OVC007 FM151400 22007KT P6SM BKN008 BKN015 FM151700 35011KT P6SM BKN025 PROB30 1517/1521 -RA BKN020 FM152100 36012G18KT P6SM BKN035 FM160000 01008KT P6SM SKC